SLCB/CBB METAR and TAF weather

Enter ICAO airport designator
Station Type Date Time Source
SLCB METAR 2021/02/27 09:00 UTC NOAA

SLCB 270900Z 19003KT 9999 FEW030 BKN070 14/12 Q1025


Station Type Date Time Source
SLCB Decoded METAR 2021/02/27 09:00 UTC NOAA

Cochabamba, Bolivia (SLCB) 17-25S 066-11W 2570M
Feb 27, 2021 - 04:00 AM EST / 2021.02.27 0900 UTC
Wind: from the S (190 degrees) at 3 MPH (3 KT):0
Visibility: greater than 7 mile(s):0
Sky conditions: mostly cloudy
Temperature: 57 F (14 C)
Dew Point: 53 F (12 C)
Relative Humidity: 87%
Pressure (altimeter): 30.27 in. Hg (1025 hPa)
ob: SLCB 270900Z 19003KT 9999 FEW030 BKN070 14/12 Q1025
cycle: 9

Station Type Date Time Source
SLCB TAF 2021/02/27 06:10 UTC NOAA

TAF SLCB 270400Z 2706/2806 00000KT 9999 FEW027 SCT070 TX24/2719Z TN13 /2710Z PROB30
TEMPO 2709/2711 8000 RA SCT027 BKN070
BECMG 2714/2716 24010KT FEW030 FEW036CB

Example: see airport list